Latest Weather Observations for Tamworth Airport

IDN60801

Issued at 7:12 pm EST Wednesday 12 August 2020 (issued every 10 minutes, with the page automatically refreshed every 10 minutes)

About weather observations | Map of weather stations | Latest weather observations for NSW | Other Formats
Station Details ID: 055325 Name: TAMWORTH AIRPORT AWS Lat: -31.07 Lon: 150.84 Height: 394.9 m
Data from the previous 72 hours. | See also: Recent months at Tamworth Airport
Date/Time
EST
Temp
°C
App
Temp
°C
Dew
Point
°C
Rel
Hum
%
Delta-T
°C
Wind Press
QNH
hPa
Press
MSL
hPa
Rain since
9am
mm
Dir  Spd
km/h
Gust
km/h
Spd
kts
Gust
kts
12/07:00pm 14.3 12.8 9.1 71 2.7 W 7 9 4 5 1014.3 1014.4 0.0
12/06:30pm 14.4 12.5 9.0 70 2.8 W 9 11 5 6 1014.1 1014.2 0.0
12/06:00pm 16.4 13.4 9.3 63 3.8 NNW 15 20 8 11 1013.7 1013.8 0.0
12/05:30pm 16.8 13.7 9.0 60 4.1 NNW 15 20 8 11 1013.7 1013.8 0.0
12/05:00pm 17.8 14.8 9.4 58 4.5 N 15 20 8 11 1013.4 1013.5 0.0
12/04:30pm 18.5 15.2 9.6 56 4.8 N 17 22 9 12 1013.2 1013.3 0.0
12/04:00pm 18.8 14.3 8.7 52 5.4 NNW 22 32 12 17 1013.1 1013.2 0.0
12/03:30pm 18.8 14.0 9.0 53 5.2 NNW 24 32 13 17 1012.9 1013.0 0.0
12/03:00pm 20.7 15.2 9.3 48 6.2 N 28 43 15 23 1013.0 1013.1 0.0
12/02:30pm 20.3 15.3 9.5 50 5.9 N 26 39 14 21 1013.2 1013.3 0.0
12/02:00pm 19.7 15.2 9.9 53 5.3 N 24 32 13 17 1013.6 1013.7 0.0
12/01:30pm 19.8 15.1 10.8 56 5.0 NNW 26 37 14 20 1014.0 1014.1 0.0
12/01:00pm 19.2 14.4 10.2 56 4.9 N 26 35 14 19 1014.4 1014.5 0.0
12/12:30pm 19.4 14.4 10.9 58 4.7 NNW 28 35 15 19 1015.3 1015.5 0.0
12/12:00pm 18.7 13.7 11.0 61 4.3 NNW 28 35 15 19 1016.1 1016.2 0.0
12/11:30am 18.1 13.5 11.0 63 3.9 NNW 26 35 14 19 1016.7 1016.8 0.0
12/11:00am 17.2 14.8 11.5 69 3.2 NW 15 24 8 13 1017.5 1017.7 0.0
12/10:30am 16.7 12.9 11.2 70 3.0 NNW 22 33 12 18 1018.0 1018.2 0.0
12/10:00am 16.2 12.3 12.0 76 2.3 N 24 32 13 17 1018.5 1018.6 0.0
12/09:30am 14.2 13.8 11.2 82 1.6 N 4 15 2 8 1018.8 1018.9 0.0
12/09:00am 13.0 12.4 10.5 85 1.3 WNW 4 7 2 4 1019.0 1019.1 0.0
12/08:30am 11.1 10.5 10.5 96 0.3 ESE 4 6 2 3 1019.1 1019.2 0.0
12/08:00am 9.0 7.4 8.9 99 0.0 SW 7 9 4 5 1019.1 1019.2 0.0
12/07:30am 8.3 7.8 8.0 98 0.1 CALM 0 0 0 0 1019.1 1019.2 0.0
12/07:00am 7.5 6.5 7.4 99 0.0 SSW 2 7 1 4 1018.8 1018.9 0.0
12/06:30am 6.7 4.7 6.3 97 0.2 WNW 6 7 3 4 1018.5 1018.6 0.0
12/06:00am 7.6 6.9 7.0 96 0.3 CALM 0 0 0 0 1017.9 1018.1 0.0
12/05:30am 8.1 7.5 7.5 96 0.3 CALM 0 0 0 0 1017.7 1017.9 0.0
12/05:00am 7.4 6.7 7.0 97 0.2 CALM 0 0 0 0 1017.6 1017.8 0.0
12/04:30am 7.6 7.0 7.2 97 0.2 CALM 0 0 0 0 1017.3 1017.5 0.0
12/04:00am 7.4 5.6 7.0 97 0.2 WSW 6 7 3 4 1017.2 1017.4 0.0
12/03:30am 7.3 4.9 6.9 97 0.2 WNW 9 9 5 5 1017.3 1017.5 0.0
12/03:00am 8.3 6.4 7.4 94 0.4 E 7 9 4 5 1017.1 1017.3 0.0
12/02:30am 8.2 5.6 7.8 97 0.2 SSE 11 13 6 7 1017.3 1017.5 0.0
12/02:00am 7.3 5.2 6.7 96 0.3 SSW 7 9 4 5 1017.6 1017.8 0.0
12/01:30am 7.4 5.0 6.8 96 0.3 SW 9 11 5 6 1017.7 1017.9 0.0
12/01:00am 7.7 4.9 7.1 96 0.3 SE 11 13 6 7 1017.6 1017.8 0.0
12/12:47am 7.9 5.2 7.3 96 0.3 ESE 11 11 6 6 1017.7 1017.9 0.0
12/12:30am 7.6 5.8 7.2 97 0.2 E 6 9 3 5 1018.0 1018.2 0.0
12/12:20am 7.6 6.9 7.0 96 0.3 CALM 0 0 0 0 1018.2 1018.3 0.0
12/12:00am 7.5 6.4 6.8 95 0.3 SW 2 6 1 3 1018.5 1018.6 0.0
 
Date/Time
EST
Temp
°C
App
Temp
°C
Dew
Point
°C
Rel
Hum
%
Delta-T
°C
Wind Press
QNH
hPa
Press
MSL
hPa
Rain since
9am
mm
Dir  Spd
km/h
Gust
km/h
Spd
kts
Gust
kts
11/11:30pm 7.3 6.5 6.4 94 0.4 CALM 0 0 0 0 1018.5 1018.6 0.0
11/11:00pm 7.9 7.1 6.7 92 0.6 CALM 0 0 0 0 1018.0 1018.2 0.0
11/10:30pm 7.2 4.2 6.1 93 0.5 SSE 11 15 6 8 1017.9 1018.1 0.0
11/10:00pm 7.6 4.3 6.4 92 0.6 SSE 13 17 7 9 1017.8 1018.0 0.0
11/09:30pm 8.4 5.2 6.9 90 0.7 SSE 13 15 7 8 1017.8 1018.0 0.0
11/09:00pm 9.1 7.2 7.4 89 0.8 SE 7 11 4 6 1018.0 1018.2 0.0
11/08:30pm 9.8 7.3 8.1 89 0.8 SE 11 13 6 7 1017.9 1018.1 0.0
11/08:00pm 9.5 7.4 8.1 91 0.7 ESE 9 11 5 6 1018.2 1018.3 0.0
11/07:30pm 9.1 8.5 7.5 90 0.8 CALM 0 7 0 4 1018.5 1018.6 0.0
11/07:00pm 9.9 8.0 7.7 86 1.1 WSW 7 9 4 5 1018.2 1018.3 0.0
11/06:30pm 11.2 8.7 8.2 82 1.5 SW 11 11 6 6 1017.5 1017.7 0.0
11/06:00pm 11.8 9.1 7.5 75 2.1 SW 11 13 6 7 1017.2 1017.4 0.0
11/05:30pm 14.5 12.7 7.8 64 3.4 S 7 9 4 5 1017.0 1017.1 0.0
11/05:00pm 16.4 14.3 8.1 58 4.3 SW 9 11 5 6 1017.0 1017.1 0.0
11/04:30pm 17.3 14.8 8.2 55 4.7 WSW 11 15 6 8 1017.3 1017.5 0.0
11/04:00pm 16.9 14.6 7.5 54 4.8 SW 9 15 5 8 1016.8 1016.9 0.0
11/03:30pm 19.0 17.4 7.8 48 5.8 W 6 9 3 5 1016.8 1016.9 0.0
11/03:00pm 18.0 16.1 7.4 50 5.4 SSE 7 15 4 8 1017.0 1017.1 0.0
11/02:30pm 18.4 16.5 7.5 49 5.6 SW 7 13 4 7 1017.3 1017.5 0.0
11/02:00pm 18.1 15.4 7.5 50 5.5 SSW 11 17 6 9 1017.7 1017.9 0.0
11/01:30pm 18.1 16.2 6.9 48 5.7 W 6 11 3 6 1017.8 1018.0 0.0
11/01:00pm 17.9 15.9 8.5 54 4.9 ESE 9 15 5 8 1018.2 1018.3 0.0
11/12:30pm 17.1 14.6 8.3 56 4.6 SE 11 20 6 11 1018.4 1018.5 0.0
11/12:00pm 16.0 13.3 7.2 56 4.4 SE 11 19 6 10 1019.0 1019.1 0.0
11/11:30am 15.8 12.8 7.8 59 4.1 SE 13 22 7 12 1019.6 1019.8 0.0
11/11:00am 15.2 11.9 8.0 62 3.7 SE 15 24 8 13 1020.1 1020.3 0.0
11/10:30am 14.1 11.5 7.6 65 3.3 SE 11 19 6 10 1020.5 1020.7 0.0
11/10:00am 13.3 11.7 8.2 71 2.6 ESE 6 11 3 6 1021.1 1021.2 0.0
11/09:30am 12.3 9.5 8.4 77 2.0 SSE 13 17 7 9 1021.0 1021.1 0.0
11/09:00am 10.9 9.4 8.3 84 1.3 SSE 6 9 3 5 1021.2 1021.3 0.0
11/08:30am 9.1 7.4 8.3 95 0.4 S 7 9 4 5 1021.1 1021.2 0.0
11/08:00am 6.5 4.5 6.4 99 0.0 SSE 6 7 3 4 1021.1 1021.2 0.0
11/07:55am 6.2 4.5 6.1 99 0.0 SSE 4 7 2 4 1021.1 1021.2 0.0
11/07:45am 5.5 4.5 5.5 100 0.0 CALM 0 0 0 0 1021.0 1021.1 0.0
11/07:30am 4.6 2.1 4.6 100 0.0 NNE 7 11 4 6 1020.9 1021.0 0.0
11/07:10am 3.7 1.0 3.7 100 0.0 SE 7 11 4 6 1020.6 1020.8 0.0
11/07:00am 3.1 -0.5 3.1 100 0.0 SE 11 13 6 7 1020.4 1020.6 0.0
11/06:34am 2.8 -0.1 2.7 99 0.0 NE 7 11 4 6 1020.3 1020.5 0.0
11/06:30am 2.6 -0.7 2.5 99 0.0 E 9 13 5 7 1020.2 1020.4 0.0
11/06:00am 2.9 -0.3 2.8 99 0.0 E 9 13 5 7 1020.0 1020.2 0.0
11/05:30am 4.3 1.7 4.3 100 0.0 SSE 7 9 4 5 1019.8 1020.0 0.0
11/05:00am 3.4 -0.2 3.1 98 0.1 SSE 11 11 6 6 1019.5 1019.7 0.0
11/04:30am 4.2 0.7 3.6 96 0.3 ESE 11 11 6 6 1019.2 1019.3 0.0
11/04:00am 5.1 1.4 4.2 94 0.4 S 13 15 7 8 1019.3 1019.5 0.0
11/03:30am 5.9 2.3 5.2 95 0.3 S 13 17 7 9 1019.4 1019.6 0.0
11/03:00am 4.7 2.0 3.8 94 0.4 W 7 9 4 5 1019.6 1019.8 0.0
11/02:30am 6.5 5.3 4.8 89 0.8 CALM 0 0 0 0 1019.6 1019.8 0.0
11/02:00am 7.4 5.3 5.7 89 0.8 NE 6 7 3 4 1019.7 1019.9 0.0
11/01:30am 7.8 6.2 6.3 90 0.7 NE 4 7 2 4 1019.8 1020.0 0.0
11/01:00am 8.2 6.2 6.2 87 0.9 SSW 6 9 3 5 1020.0 1020.2 0.0
11/12:30am 8.0 5.9 5.8 86 1.0 NW 6 7 3 4 1019.9 1020.1 0.0
11/12:00am 8.3 5.3 5.9 85 1.1 SSW 11 13 6 7 1020.0 1020.2 0.0
 
Date/Time
EST
Temp
°C
App
Temp
°C
Dew
Point
°C
Rel
Hum
%
Delta-T
°C
Wind Press
QNH
hPa
Press
MSL
hPa
Rain since
9am
mm
Dir  Spd
km/h
Gust
km/h
Spd
kts
Gust
kts
10/11:30pm 8.4 5.0 5.7 83 1.3 S 13 17 7 9 1019.7 1019.9 0.0
10/11:00pm 8.0 4.1 5.5 84 1.1 SSW 15 17 8 9 1019.3 1019.5 0.0
10/10:30pm 7.5 4.0 5.3 86 1.0 SW 13 17 7 9 1019.1 1019.2 0.0
10/10:00pm 7.6 3.9 4.7 82 1.3 SW 13 15 7 8 1019.0 1019.1 0.0
10/09:30pm 8.1 3.8 5.4 83 1.2 SSW 17 20 9 11 1019.0 1019.1 0.0
10/09:00pm 9.5 5.7 6.0 79 1.6 SSW 15 20 8 11 1019.0 1019.1 0.0
10/08:30pm 10.4 6.8 6.9 79 1.7 SSW 15 20 8 11 1018.9 1019.0 0.0
10/08:00pm 10.6 6.8 7.5 81 1.5 SSW 17 24 9 13 1018.8 1018.9 0.0
10/07:30pm 9.7 5.7 6.6 81 1.5 SSW 17 20 9 11 1018.6 1018.7 0.0
10/07:00pm 10.4 6.4 6.7 78 1.8 S 17 24 9 13 1018.2 1018.3 0.0
10/06:30pm 9.5 5.7 6.0 79 1.6 SSW 15 19 8 10 1017.7 1017.9 0.0
10/06:00pm 10.6 6.4 5.8 72 2.3 SSE 17 22 9 12 1017.3 1017.5 0.0
10/05:30pm 11.4 6.9 6.1 70 2.5 S 19 26 10 14 1016.9 1017.0 0.0
10/05:00pm 13.2 8.6 6.5 64 3.3 S 20 28 11 15 1016.5 1016.6 0.0
10/04:30pm 13.6 8.5 6.2 61 3.6 S 22 28 12 15 1016.1 1016.2 0.0
10/04:00pm 14.3 8.2 6.6 60 3.8 S 28 39 15 21 1015.6 1015.7 0.0
10/03:30pm 14.5 8.6 7.5 63 3.5 S 28 39 15 21 1015.1 1015.3 0.0
10/03:00pm 12.9 8.4 8.6 75 2.2 S 22 41 12 22 1015.1 1015.3 0.0
10/02:30pm 13.9 8.3 8.9 72 2.6 S 28 35 15 19 1014.8 1014.9 0.0
10/02:00pm 13.7 8.4 9.7 77 2.1 SSW 28 35 15 19 1014.5 1014.6 0.0
10/01:30pm 13.2 9.8 10.6 84 1.4 S 19 26 10 14 1014.3 1014.4 0.0
10/01:00pm 12.7 10.3 10.1 84 1.4 S 13 24 7 13 1014.4 1014.5 0.0
10/12:30pm 12.9 11.3 10.1 83 1.5 SE 9 15 5 8 1014.3 1014.4 0.0
10/12:00pm 13.1 11.0 9.7 80 1.8 SW 11 17 6 9 1014.4 1014.5 0.0
10/11:36am 12.0 9.4 9.2 83 1.4 SSW 13 17 7 9 1014.6 1014.7 0.0
10/11:30am 11.8 9.2 9.4 85 1.2 SW 13 17 7 9 1014.6 1014.7 0.0
10/11:00am 10.7 8.0 8.8 88 1.0 WSW 13 17 7 9 1014.8 1014.9 0.0
10/10:30am 10.5 8.6 8.9 90 0.8 NNW 9 13 5 7 1014.6 1014.7 0.0
10/10:00am 10.0 8.0 8.8 92 0.6 NW 9 13 5 7 1014.7 1014.8 0.0
10/09:30am 8.9 6.7 7.8 93 0.5 NNW 9 13 5 7 1014.6 1014.7 0.0
10/09:20am 8.9 6.8 8.1 95 0.4 NW 9 13 5 7 1014.5 1014.6 0.0
10/09:00am 8.2 6.1 8.2 100 0.0 NW 9 13 5 7 1014.5 1014.6 2.4
10/08:30am 7.6 5.0 7.6 100 0.0 NW 11 13 6 7 1014.2 1014.3 2.4
10/08:20am 7.5 5.2 7.5 100 0.0 NNW 9 13 5 7 1014.1 1014.2 2.4
10/08:08am 7.3 5.0 7.3 100 0.0 NW 9 13 5 7 1013.9 1014.0 2.4
10/08:00am 7.1 4.3 7.1 100 0.0 NW 11 13 6 7 1013.9 1014.0 2.4
10/07:30am 6.7 4.2 6.7 100 0.0 N 9 9 5 5 1013.3 1013.4 2.4
10/07:23am 6.7 4.6 6.7 100 0.0 N 7 11 4 6 1013.2 1013.3 2.4
10/07:00am 6.5 4.0 6.5 100 0.0 N 9 11 5 6 1012.9 1013.0 2.4
10/06:41am 6.4 4.2 6.4 100 0.0 N 7 11 4 6 1012.8 1012.8 2.4
10/06:30am 6.3 5.5 6.3 100 0.0 CALM 0 0 0 0 1012.5 1012.6 2.4
10/06:10am 6.2 5.3 6.2 100 0.0 CALM 0 0 0 0 1012.1 1012.2 2.4
10/06:00am 6.1 5.2 6.1 100 0.0 CALM 0 0 0 0 1012.0 1012.1 2.4
10/05:30am 6.2 4.0 6.2 100 0.0 WNW 7 11 4 6 1011.6 1011.7 2.4
10/05:00am 6.1 3.1 6.1 100 0.0 WNW 11 15 6 8 1011.3 1011.4 2.4
10/04:30am 6.0 2.6 6.0 100 0.0 NW 13 15 7 8 1010.9 1011.0 2.4
10/04:06am 5.9 2.1 5.9 100 0.0 NW 15 20 8 11 1010.8 1010.9 2.4
10/04:00am 5.9 2.1 5.9 100 0.0 NW 15 20 8 11 1010.7 1010.8 2.4
10/03:30am 5.9 2.1 5.9 100 0.0 NW 15 22 8 12 1010.8 1010.9 2.4
10/03:00am 5.9 1.4 5.9 100 0.0 NW 19 24 10 13 1010.6 1010.6 2.4
10/02:36am 6.0 1.5 5.9 99 0.0 NW 19 26 10 14 1010.6 1010.6 2.4
10/02:30am 6.0 1.5 5.9 99 0.0 NW 19 24 10 13 1010.8 1010.9 2.4
10/02:14am 6.0 1.3 5.9 99 0.0 NW 20 26 11 14 1010.6 1010.6 2.4
10/02:11am 6.0 1.3 5.9 99 0.0 NW 20 24 11 13 1010.6 1010.6 2.4
10/02:00am 6.1 1.6 6.0 99 0.0 NW 19 28 10 15 1010.7 1010.8 2.4
10/01:30am 6.3 2.2 6.3 100 0.0 NW 17 24 9 13 1010.9 1011.0 2.0
10/01:08am 6.4 2.3 6.3 99 0.0 NW 17 24 9 13 1011.0 1011.1 2.0
10/01:00am 6.4 1.9 6.3 99 0.0 NW 19 24 10 13 1011.1 1011.2 2.0
10/12:30am 6.5 1.8 6.2 98 0.1 NW 20 28 11 15 1011.1 1011.2 1.6
10/12:00am 6.6 1.9 6.0 96 0.3 NW 20 30 11 16 1010.9 1011.0 0.6
 
Date/Time
EST
Temp
°C
App
Temp
°C
Dew
Point
°C
Rel
Hum
%
Delta-T
°C
Wind Press
QNH
hPa
Press
MSL
hPa
Rain since
9am
mm
Dir  Spd
km/h
Gust
km/h
Spd
kts
Gust
kts
09/11:30pm 6.6 1.5 5.9 95 0.3 NW 22 30 12 16 1011.1 1011.2 0.4
09/11:00pm 6.4 1.8 5.7 95 0.3 NW 19 26 10 14 1011.5 1011.6 0.4
09/10:30pm 6.5 2.0 5.9 96 0.3 NW 19 26 10 14 1011.6 1011.7 0.4
09/10:00pm 6.4 2.0 6.4 100 0.0 NW 19 24 10 13 1012.0 1012.1 0.4
09/09:30pm 6.3 2.2 6.2 99 0.0 NW 17 20 9 11 1012.3 1012.4 0.4
09/09:00pm 6.4 1.9 6.3 99 0.0 NNW 19 24 10 13 1012.2 1012.3 0.4
09/08:30pm 6.5 2.8 6.2 98 0.1 NNW 15 20 8 11 1012.8 1012.8 0.4
09/08:00pm 6.7 3.0 6.3 97 0.2 NNW 15 20 8 11 1012.8 1012.8 0.4
09/07:30pm 6.9 3.6 6.5 97 0.2 NNW 13 17 7 9 1012.8 1012.8 0.4

Other formats

Comma delimited format used in spreadsheet applications
http://www.bom.gov.au/fwo/IDN60801/IDN60801.95762.axf

JavaScript Object Notation format (JSON) in row-major order
http://www.bom.gov.au/fwo/IDN60801/IDN60801.95762.json

Data quality

Most of these data are generated automatically and are frequently updated. Quality checks on data are not normally performed. It is possible for incorrect values to appear. Refer to information at About Latest Weather Observations and please check the disclaimer before using these data.